Time;durP1;ratioP1;P1;durP2;ratioP2;P2;SDS_P1;SDS_P2;PMS_P1;PMS_P2;Temp;Humidity;BMP_temperature;BMP_pressure;BME280_temperature;BME280_humidity;BME280_pressure;Samples;Min_cycle;Max_cycle;Signal;HPM_P1;HPM_P2
2022/07/01 00:01:44;;;;;;;35.83;27.38;;;;;;;13.56;99.95;101390.38;5014214;28;20084;-47
2022/07/01 00:04:10;;;;;;;35.67;27.55;;;;;;;13.48;100.00;101405.03;5014439;28;20077;-48
2022/07/01 00:06:36;;;;;;;35.10;26.88;;;;;;;13.41;100.00;101403.50;5014532;28;20462;-50
2022/07/01 00:09:02;;;;;;;35.00;26.17;;;;;;;13.37;100.00;101396.88;5013906;28;20038;-50
2022/07/01 00:11:27;;;;;;;34.20;25.52;;;;;;;13.35;100.00;101395.56;5013998;28;20051;-49
2022/07/01 00:13:52;;;;;;;34.17;25.48;;;;;;;13.27;100.00;101402.69;5014158;28;20029;-52
2022/07/01 00:16:18;;;;;;;32.58;24.02;;;;;;;13.23;100.00;101385.78;5014449;28;20335;-49
2022/07/01 00:18:43;;;;;;;31.95;23.92;;;;;;;13.23;100.00;101385.78;5014348;28;20100;-49
2022/07/01 00:21:09;;;;;;;32.03;23.83;;;;;;;13.18;100.00;101383.16;5014304;28;20050;-49
2022/07/01 00:23:34;;;;;;;30.25;22.45;;;;;;;13.20;100.00;101389.22;5013690;28;20074;-49
2022/07/01 00:25:59;;;;;;;29.15;21.58;;;;;;;13.16;99.53;101390.97;5013924;28;20053;-52
2022/07/01 00:28:25;;;;;;;29.27;21.23;;;;;;;13.08;100.00;101381.38;5014461;28;20444;-50
2022/07/01 00:30:51;;;;;;;28.15;21.20;;;;;;;13.10;99.94;101384.69;5013923;28;20045;-49
2022/07/01 00:33:16;;;;;;;27.98;20.73;;;;;;;13.09;100.00;101388.59;5014003;28;20505;-48
2022/07/01 00:35:41;;;;;;;27.10;20.02;;;;;;;13.04;100.00;101393.44;5013779;28;20034;-50
2022/07/01 00:38:06;;;;;;;27.20;20.75;;;;;;;13.01;100.00;101378.22;5013767;28;20399;-51
2022/07/01 00:40:32;;;;;;;28.65;20.63;;;;;;;13.01;100.00;101369.88;5013506;28;20048;-52
2022/07/01 00:42:57;;;;;;;28.33;20.13;;;;;;;12.97;99.99;101365.25;5013619;28;20049;-53
2022/07/01 00:45:22;;;;;;;27.58;20.30;;;;;;;12.96;99.96;101370.00;5014155;28;20117;-52
2022/07/01 00:47:49;;;;;;;28.15;20.25;;;;;;;12.87;100.00;101372.66;5013202;28;20458;-52
2022/07/01 00:50:16;;;;;;;29.02;20.00;;;;;;;12.89;99.97;101367.63;5013519;28;20022;-49
2022/07/01 00:52:43;;;;;;;27.95;19.50;;;;;;;12.84;100.00;101362.19;5013888;28;20480;-50
2022/07/01 00:55:13;;;;;;;28.02;20.38;;;;;;;12.88;100.00;101365.19;5013982;28;20030;-53
2022/07/01 00:57:40;;;;;;;28.55;19.50;;;;;;;12.98;100.00;101373.31;5012657;28;20053;-48
2022/07/01 01:00:05;;;;;;;30.80;21.13;;;;;;;13.06;99.60;101377.28;5013223;28;20123;-49
2022/07/01 01:02:31;;;;;;;29.23;21.05;;;;;;;13.05;99.55;101367.31;5012681;28;20458;-48
2022/07/01 01:04:56;;;;;;;29.52;20.38;;;;;;;13.07;99.58;101373.38;5012808;28;20112;-48
2022/07/01 01:07:22;;;;;;;31.17;21.70;;;;;;;13.11;99.36;101375.22;5013191;28;20053;-51
2022/07/01 01:09:47;;;;;;;30.98;21.75;;;;;;;13.15;99.16;101386.53;5013093;28;20402;-51
2022/07/01 01:12:14;;;;;;;31.27;21.42;;;;;;;13.15;98.60;101396.84;5012716;28;20048;-50
2022/07/01 01:14:49;;;;;;;29.50;21.42;;;;;;;13.18;99.02;101410.94;5011599;28;20407;-48
2022/07/01 01:17:15;;;;;;;31.05;22.52;;;;;;;13.14;99.40;101409.06;5032306;22;20041;-56
2022/07/01 01:19:41;;;;;;;28.95;21.10;;;;;;;13.17;98.42;101409.28;5032158;28;20029;-54
2022/07/01 01:22:08;;;;;;;31.30;22.13;;;;;;;13.10;98.64;101411.66;5031939;28;20030;-57
2022/07/01 01:24:35;;;;;;;29.75;21.90;;;;;;;13.13;99.03;101432.44;5031826;28;20037;-55
2022/07/01 01:27:00;;;;;;;34.40;23.40;;;;;;;13.08;99.57;101438.91;5031923;28;20199;-56
2022/07/01 01:29:26;;;;;;;33.20;22.38;;;;;;;13.05;99.94;101433.97;5032049;28;20425;-55
2022/07/01 01:31:51;;;;;;;31.95;23.60;;;;;;;13.07;99.80;101440.88;5032068;28;20113;-57
2022/07/01 01:34:16;;;;;;;32.63;23.05;;;;;;;13.13;99.73;101432.44;5031965;28;20047;-55
2022/07/01 01:36:42;;;;;;;32.65;23.88;;;;;;;13.13;98.96;101437.97;5031952;28;20357;-55
2022/07/01 01:39:15;;;;;;;32.08;24.33;;;;;;;13.18;99.11;101427.59;5032169;28;20036;-55
2022/07/01 01:41:40;;;;;;;32.90;23.55;;;;;;;13.20;99.04;101427.28;5031816;28;20033;-51
2022/07/01 01:44:06;;;;;;;33.25;22.98;;;;;;;13.22;99.22;101425.84;5031373;28;20365;-53
2022/07/01 01:46:31;;;;;;;31.95;22.92;;;;;;;13.21;98.73;101424.22;5031627;28;20115;-51
2022/07/01 01:48:58;;;;;;;31.98;23.38;;;;;;;13.16;98.92;101426.25;5031351;28;20029;-54
2022/07/01 01:51:23;;;;;;;32.42;24.20;;;;;;;13.19;99.31;101442.28;5031329;28;20030;-52
2022/07/01 01:53:48;;;;;;;32.03;22.48;;;;;;;13.19;99.55;101439.50;5031746;28;20173;-55
2022/07/01 01:56:14;;;;;;;32.60;23.08;;;;;;;13.16;99.67;101429.84;5031595;28;20033;-57
2022/07/01 01:58:42;;;;;;;33.08;21.88;;;;;;;13.21;99.09;101417.81;5031343;28;20087;-54
2022/07/01 02:01:09;;;;;;;31.48;22.48;;;;;;;13.20;99.14;101419.78;5031276;28;20022;-56
2022/07/01 02:03:35;;;;;;;29.38;21.23;;;;;;;13.26;99.14;101429.63;5030679;28;20406;-55
2022/07/01 02:06:00;;;;;;;32.53;21.52;;;;;;;13.25;99.10;101427.19;5031483;28;20049;-55
2022/07/01 02:08:25;;;;;;;29.13;21.00;;;;;;;13.24;98.57;101431.91;5031229;28;20033;-57
2022/07/01 02:10:50;;;;;;;30.05;21.38;;;;;;;13.22;99.20;101439.75;5030913;28;20104;-57
2022/07/01 02:13:16;;;;;;;30.80;20.83;;;;;;;13.21;99.22;101428.91;5031024;28;20030;-57
2022/07/01 02:15:41;;;;;;;29.77;20.27;;;;;;;13.22;99.53;101436.13;5030511;28;20028;-54
2022/07/01 02:18:06;;;;;;;29.73;21.10;;;;;;;13.13;98.95;101449.09;5029648;28;20048;-53
2022/07/01 02:20:32;;;;;;;30.58;21.88;;;;;;;13.12;99.24;101451.06;5030763;28;20492;-50
2022/07/01 02:22:57;;;;;;;29.85;19.48;;;;;;;13.14;99.23;101459.88;5030354;28;20032;-54
2022/07/01 02:25:23;;;;;;;30.27;21.20;;;;;;;13.09;99.79;101455.25;5030882;28;20147;-56
2022/07/01 02:27:48;;;;;;;30.67;21.08;;;;;;;13.13;99.49;101463.78;5030867;28;20034;-55
2022/07/01 02:30:13;;;;;;;31.73;21.42;;;;;;;13.12;99.77;101467.72;5030900;28;20361;-55
2022/07/01 02:32:39;;;;;;;29.50;21.23;;;;;;;13.17;100.00;101466.81;5030760;28;20469;-54
2022/07/01 02:35:04;;;;;;;30.38;21.17;;;;;;;13.20;100.00;101455.91;5030977;28;20025;-55
2022/07/01 02:37:29;;;;;;;30.73;21.27;;;;;;;13.21;99.30;101457.53;5045926;28;20057;-56
2022/07/01 02:39:55;;;;;;;32.20;22.98;;;;;;;13.19;98.87;101445.06;5030781;28;20057;-54
2022/07/01 02:42:23;;;;;;;31.40;22.50;;;;;;;13.14;99.27;101440.44;5030517;28;20033;-54
2022/07/01 02:44:48;;;;;;;29.98;21.63;;;;;;;13.14;99.11;101436.84;5030551;28;20343;-54
2022/07/01 02:47:13;;;;;;;31.27;22.75;;;;;;;13.18;99.26;101423.97;5030099;28;20031;-53
2022/07/01 02:49:39;;;;;;;31.35;22.77;;;;;;;13.08;98.99;101416.69;5029961;28;20366;-56
2022/07/01 02:52:05;;;;;;;32.47;23.38;;;;;;;13.08;99.42;101431.38;5030426;28;20034;-54
2022/07/01 02:54:30;;;;;;;31.45;22.85;;;;;;;13.08;98.82;101445.28;5030633;28;20091;-55
2022/07/01 02:56:56;;;;;;;32.53;22.95;;;;;;;13.07;99.05;101448.38;5030761;28;20025;-55
2022/07/01 02:59:21;;;;;;;31.85;23.58;;;;;;;13.06;99.24;101453.13;5028421;28;20040;-54
2022/07/01 03:01:46;;;;;;;32.72;23.15;;;;;;;13.07;98.90;101453.94;5029983;28;20444;-55
2022/07/01 03:04:11;;;;;;;32.38;23.20;;;;;;;13.07;98.76;101467.81;5029846;28;20022;-53
2022/07/01 03:06:37;;;;;;;31.52;22.75;;;;;;;13.08;99.55;101467.50;5029973;28;20078;-53
2022/07/01 03:09:02;;;;;;;33.85;23.42;;;;;;;13.06;98.61;101471.72;5029556;28;20022;-53
2022/07/01 03:11:28;;;;;;;31.77;23.67;;;;;;;12.99;99.42;101468.53;5029193;28;20041;-53
2022/07/01 03:13:53;;;;;;;32.47;22.58;;;;;;;12.90;99.75;101469.25;5029052;28;20030;-54
2022/07/01 03:16:19;;;;;;;33.35;23.77;;;;;;;12.86;100.00;101473.75;5029174;28;20083;-54
2022/07/01 03:18:44;;;;;;;32.55;23.95;;;;;;;12.84;100.00;101480.75;5029110;28;20079;-55
2022/07/01 03:21:09;;;;;;;35.30;24.27;;;;;;;12.78;100.00;101482.78;5029240;28;20048;-53
2022/07/01 03:23:34;;;;;;;32.92;24.73;;;;;;;12.79;100.00;101478.91;5029450;28;20178;-54
2022/07/01 03:26:00;;;;;;;32.95;24.73;;;;;;;12.78;100.00;101469.75;5028460;28;20102;-54
2022/07/01 03:28:25;;;;;;;33.03;23.70;;;;;;;12.78;100.00;101463.38;5029492;28;20100;-54
2022/07/01 03:30:50;;;;;;;32.97;23.67;;;;;;;12.87;100.00;101458.75;5029687;28;20067;-54
2022/07/01 03:33:16;;;;;;;34.97;23.95;;;;;;;12.92;100.00;101480.88;5044887;28;20026;-53
2022/07/01 03:35:45;;;;;;;34.83;24.85;;;;;;;12.91;100.00;101470.06;5028386;28;20034;-53
2022/07/01 03:38:11;;;;;;;33.38;25.90;;;;;;;12.88;100.00;101467.91;5028354;28;20025;-53
2022/07/01 03:40:37;;;;;;;34.00;24.92;;;;;;;12.87;100.00;101478.19;5029716;28;20080;-54
2022/07/01 03:43:03;;;;;;;35.42;26.02;;;;;;;12.86;100.00;101479.31;5029796;28;20480;-54
2022/07/01 03:45:29;;;;;;;34.58;25.23;;;;;;;12.87;100.00;101486.50;5029672;28;20022;-55
2022/07/01 03:47:54;;;;;;;36.53;25.33;;;;;;;12.89;100.00;101494.56;5030074;28;20361;-56
2022/07/01 03:50:22;;;;;;;36.47;26.85;;;;;;;12.89;100.00;101506.47;5028421;28;20078;-54
2022/07/01 03:52:47;;;;;;;35.42;25.00;;;;;;;12.88;100.00;101513.16;5029838;28;20025;-57
2022/07/01 03:55:13;;;;;;;36.90;26.88;;;;;;;12.86;100.00;101514.59;5029813;28;20491;-56
2022/07/01 03:57:38;;;;;;;36.63;25.48;;;;;;;12.83;100.00;101515.19;5029906;28;20472;-54
2022/07/01 04:00:08;;;;;;;37.55;27.00;;;;;;;12.79;100.00;101515.00;5044519;28;20053;-54
2022/07/01 04:02:33;;;;;;;37.50;26.17;;;;;;;12.75;100.00;101517.56;5029224;28;20030;-56
2022/07/01 04:04:59;;;;;;;36.13;26.60;;;;;;;12.72;100.00;101526.47;5029204;28;20025;-53
2022/07/01 04:07:25;;;;;;;40.40;27.00;;;;;;;12.75;100.00;101530.63;5029475;28;20056;-53
2022/07/01 04:09:52;;;;;;;35.15;24.63;;;;;;;12.74;100.00;101520.66;5044222;28;20449;-53
2022/07/01 04:12:18;;;;;;;38.45;26.85;;;;;;;12.81;100.00;101529.41;5028986;28;20030;-55
2022/07/01 04:14:43;;;;;;;38.72;28.15;;;;;;;12.83;100.00;101521.59;5028022;28;20025;-54
2022/07/01 04:17:08;;;;;;;35.10;25.42;;;;;;;12.85;100.00;101527.63;5028975;28;20060;-54
2022/07/01 04:19:35;;;;;;;36.92;26.75;;;;;;;12.85;100.00;101524.88;5029066;28;20467;-54
2022/07/01 04:24:44;;;;;;;38.20;26.25;;;;;;;12.87;100.00;101535.69;5029702;28;20045;-52
2022/07/01 04:27:11;;;;;;;36.90;25.92;;;;;;;12.83;100.00;101521.59;5028995;28;20025;-54
2022/07/01 04:29:36;;;;;;;35.63;26.83;;;;;;;12.81;100.00;101521.06;5028833;28;20523;-53
2022/07/01 04:32:01;;;;;;;35.67;26.45;;;;;;;12.83;100.00;101516.03;5028529;28;20053;-53
2022/07/01 04:34:27;;;;;;;37.00;26.55;;;;;;;12.80;100.00;101520.22;5043946;28;20028;-54
2022/07/01 04:36:52;;;;;;;36.97;25.63;;;;;;;12.79;100.00;101518.59;5027707;28;20068;-53
2022/07/01 04:39:18;;;;;;;36.72;25.33;;;;;;;12.75;100.00;101523.09;5028622;28;20110;-54
2022/07/01 04:42:01;;;;;;;38.38;26.25;;;;;;;12.76;100.00;101518.38;5032263;28;20420;-54
2022/07/01 04:44:34;;;;;;;35.97;24.02;;;;;;;12.78;100.00;101528.06;5033143;28;20064;-55
2022/07/01 04:47:01;;;;;;;37.28;26.40;;;;;;;12.84;100.00;101533.50;5047415;28;20030;-54
2022/07/01 04:49:27;;;;;;;36.15;26.02;;;;;;;12.86;99.89;101543.19;5032499;28;20034;-54
2022/07/01 04:51:53;;;;;;;39.65;25.85;;;;;;;12.85;99.39;101543.50;5048053;28;20033;-54
2022/07/01 04:54:18;;;;;;;37.47;27.38;;;;;;;12.78;99.76;101543.88;5032671;28;20174;-54
2022/07/01 04:56:44;;;;;;;38.70;26.05;;;;;;;12.85;99.40;101537.94;5032829;28;20436;-56
2022/07/01 04:59:09;;;;;;;41.55;28.27;;;;;;;12.79;99.83;101535.25;5032028;28;20026;-57
2022/07/01 05:01:35;;;;;;;40.50;27.27;;;;;;;12.80;99.72;101536.06;5032205;28;20339;-57
2022/07/01 05:04:00;;;;;;;41.03;27.83;;;;;;;12.86;99.69;101531.25;5047098;28;20104;-57
2022/07/01 05:06:26;;;;;;;39.55;27.77;;;;;;;12.92;99.49;101533.66;5031884;28;20065;-54
2022/07/01 05:08:52;;;;;;;41.10;27.58;;;;;;;12.91;98.91;101532.00;5046822;28;20026;-54
2022/07/01 05:11:17;;;;;;;38.25;27.80;;;;;;;12.98;98.63;101541.88;5031655;28;20049;-53
2022/07/01 05:13:43;;;;;;;37.22;27.17;;;;;;;13.03;98.97;101541.78;5031693;28;20365;-55
2022/07/01 05:16:08;;;;;;;37.58;27.23;;;;;;;13.07;98.95;101540.03;5046787;28;20464;-56
2022/07/01 05:24:03;;;;;;;36.53;24.55;;;;;;;13.14;98.01;101539.63;5031892;28;20090;-54
2022/07/01 05:26:28;;;;;;;36.42;24.08;;;;;;;13.13;98.63;101533.25;5032287;28;20025;-55
2022/07/01 05:28:54;;;;;;;33.35;22.88;;;;;;;13.11;98.38;101525.22;5032098;28;20117;-55
2022/07/01 05:31:20;;;;;;;32.83;22.63;;;;;;;13.12;98.53;101526.06;5031800;28;20101;-55
2022/07/01 05:33:46;;;;;;;34.53;22.52;;;;;;;13.19;98.56;101525.63;5031543;28;20045;-55
2022/07/01 05:36:12;;;;;;;32.00;20.77;;;;;;;13.25;97.62;101528.00;5028714;28;20056;-55
2022/07/01 05:38:37;;;;;;;30.45;19.65;;;;;;;13.37;97.28;101529.47;5015950;28;20026;-56
2022/07/01 05:41:03;;;;;;;29.77;20.33;;;;;;;13.46;96.28;101535.19;5011827;28;20033;-54
2022/07/01 05:43:29;;;;;;;29.75;19.42;;;;;;;13.52;96.24;101528.38;5010374;28;20076;-55
2022/07/01 05:45:54;;;;;;;30.65;20.05;;;;;;;13.58;96.39;101524.34;5011678;28;20133;-55
2022/07/01 05:48:20;;;;;;;27.83;17.85;;;;;;;13.66;94.70;101536.69;5011745;28;20040;-54
2022/07/01 05:50:45;;;;;;;28.13;18.40;;;;;;;13.68;94.59;101532.47;5011727;28;20022;-54
2022/07/01 05:53:11;;;;;;;28.35;18.25;;;;;;;13.62;94.54;101524.53;5011143;28;20065;-55
2022/07/01 05:55:36;;;;;;;28.85;18.25;;;;;;;13.59;94.68;101533.53;5010403;28;20113;-55
2022/07/01 05:58:01;;;;;;;27.73;18.98;;;;;;;13.63;93.31;101542.88;5011607;28;20057;-54
2022/07/01 06:00:28;;;;;;;27.30;18.17;;;;;;;13.56;93.55;101543.28;5011565;28;20528;-54
2022/07/01 06:02:53;;;;;;;27.45;18.30;;;;;;;13.51;93.50;101546.19;5011446;28;20092;-54
2022/07/01 06:05:19;;;;;;;30.75;19.27;;;;;;;13.56;93.63;101543.28;5011568;28;20030;-54
2022/07/01 06:07:44;;;;;;;30.70;20.05;;;;;;;13.57;93.84;101542.16;5011351;28;20446;-55
2022/07/01 06:10:10;;;;;;;29.58;19.52;;;;;;;13.64;93.89;101538.97;5011612;28;20022;-55
2022/07/01 06:12:35;;;;;;;28.55;19.75;;;;;;;13.58;92.93;101538.25;5011418;28;20036;-55
2022/07/01 06:15:01;;;;;;;30.88;20.23;;;;;;;13.60;92.76;101535.16;5011353;28;20045;-54
2022/07/01 06:17:26;;;;;;;27.05;18.70;;;;;;;13.59;92.85;101525.19;5011159;28;20148;-54
2022/07/01 06:19:53;;;;;;;27.80;18.45;;;;;;;13.62;92.79;101544.84;5011519;28;20384;-54
2022/07/01 06:22:20;;;;;;;29.98;19.73;;;;;;;13.72;92.55;101546.56;5011184;28;20141;-54
2022/07/01 06:24:46;;;;;;;28.17;18.98;;;;;;;13.80;91.78;101545.03;5011111;28;20034;-54
2022/07/01 06:27:11;;;;;;;27.55;18.67;;;;;;;13.82;91.90;101545.53;5009615;28;20030;-54
2022/07/01 06:29:37;;;;;;;28.83;18.00;;;;;;;13.88;91.64;101533.16;5011223;28;20097;-57
2022/07/01 06:32:07;;;;;;;27.77;18.02;;;;;;;13.91;91.09;101526.97;5011040;28;20432;-54
2022/07/01 06:34:32;;;;;;;26.42;17.33;;;;;;;14.01;90.80;101529.53;5010968;28;20026;-56
2022/07/01 06:37:00;;;;;;;27.20;18.05;;;;;;;14.12;90.44;101527.34;5010902;28;20030;-54
2022/07/01 06:39:26;;;;;;;26.45;17.80;;;;;;;14.23;90.48;101525.13;5010685;28;20062;-54
2022/07/01 06:41:52;;;;;;;25.08;16.95;;;;;;;14.40;89.40;101535.59;5010592;28;20045;-54
2022/07/01 06:44:17;;;;;;;25.83;16.90;;;;;;;14.48;87.57;101532.03;5011293;28;20033;-54
2022/07/01 06:46:42;;;;;;;26.17;16.63;;;;;;;14.45;86.31;101524.31;5010718;28;20100;-55
2022/07/01 06:49:08;;;;;;;25.48;16.05;;;;;;;14.46;86.44;101536.28;5011032;28;20029;-54
2022/07/01 06:51:33;;;;;;;26.65;18.25;;;;;;;14.48;86.25;101536.81;5010621;28;20037;-53
2022/07/01 06:53:58;;;;;;;25.52;17.42;;;;;;;14.50;86.26;101531.72;5009159;28;20401;-55
2022/07/01 06:56:23;;;;;;;25.52;17.50;;;;;;;14.57;86.95;101534.06;5011097;28;20474;-53
2022/07/01 06:58:49;;;;;;;27.17;17.38;;;;;;;14.63;86.47;101544.75;5010613;28;20045;-56
2022/07/01 07:01:14;;;;;;;26.77;17.85;;;;;;;14.68;84.98;101554.97;5010630;28;20109;-55
2022/07/01 07:03:39;;;;;;;26.40;17.08;;;;;;;14.71;85.56;101556.31;5008737;28;20030;-55
2022/07/01 07:06:04;;;;;;;28.38;17.25;;;;;;;14.79;85.30;101547.19;5010571;28;20489;-55
2022/07/01 07:08:31;;;;;;;25.98;16.55;;;;;;;14.89;84.72;101546.91;5010736;28;20045;-55
2022/07/01 07:10:57;;;;;;;25.08;16.38;;;;;;;14.94;84.47;101557.94;5010641;28;20032;-55
2022/07/01 07:13:23;;;;;;;26.52;16.63;;;;;;;15.02;84.01;101572.25;5010721;28;20034;-53
2022/07/01 07:15:48;;;;;;;22.88;15.48;;;;;;;15.06;82.45;101562.91;5010559;28;20048;-55
2022/07/01 07:18:13;;;;;;;23.80;15.82;;;;;;;15.00;82.11;101575.34;5010285;28;20401;-55
2022/07/01 07:20:39;;;;;;;23.48;15.43;;;;;;;14.95;82.43;101576.31;5010687;28;20052;-54
2022/07/01 07:23:04;;;;;;;24.83;16.00;;;;;;;14.94;81.87;101568.25;5010716;28;20105;-52
2022/07/01 07:25:30;;;;;;;24.60;15.48;;;;;;;14.98;81.23;101563.69;5010817;28;20078;-51
2022/07/01 07:27:55;;;;;;;25.42;15.80;;;;;;;15.00;81.79;101569.78;5010545;28;20461;-50
2022/07/01 07:30:21;;;;;;;25.42;16.27;;;;;;;15.09;81.91;101581.81;5010574;28;20033;-51
2022/07/01 07:32:46;;;;;;;24.88;15.23;;;;;;;15.23;80.52;101584.50;5010496;28;20489;-53
2022/07/01 07:35:12;;;;;;;24.17;15.00;;;;;;;15.31;79.52;101593.22;5010515;28;20137;-52
2022/07/01 07:37:38;;;;;;;24.60;15.25;;;;;;;15.32;79.93;101598.47;5010398;28;20030;-54
2022/07/01 07:40:09;;;;;;;23.48;13.55;;;;;;;15.29;79.26;101605.50;5009944;28;20026;-54
2022/07/01 07:42:36;;;;;;;22.70;14.10;;;;;;;15.35;78.27;101608.19;5010755;28;20101;-55
2022/07/01 07:45:02;;;;;;;21.63;12.85;;;;;;;15.42;77.36;101603.75;5010298;28;20030;-57
2022/07/01 07:47:27;;;;;;;23.10;13.57;;;;;;;15.57;75.53;101598.91;5009909;28;20100;-54
2022/07/01 07:49:52;;;;;;;21.23;12.73;;;;;;;15.66;75.59;101599.78;5008805;28;20077;-54
2022/07/01 07:52:18;;;;;;;22.08;12.70;;;;;;;15.80;75.34;101596.88;5008461;28;20022;-57
2022/07/01 07:54:43;;;;;;;22.92;13.20;;;;;;;15.95;74.63;101595.63;5008723;28;20132;-55
2022/07/01 07:57:08;;;;;;;20.75;12.48;;;;;;;16.06;74.92;101598.91;5008357;28;20119;-56
2022/07/01 07:59:35;;;;;;;21.58;12.27;;;;;;;16.22;73.04;101604.88;5007940;28;20034;-55
2022/07/01 08:02:01;;;;;;;21.08;12.25;;;;;;;16.28;72.02;101606.34;5008136;28;20037;-55
2022/07/01 08:04:26;;;;;;;20.65;11.20;;;;;;;16.31;69.58;101613.22;5008539;28;20034;-55
2022/07/01 08:06:51;;;;;;;19.75;12.05;;;;;;;16.32;70.19;101609.28;5006728;28;20359;-55
2022/07/01 08:09:16;;;;;;;19.40;11.63;;;;;;;16.23;70.34;101603.72;5008477;28;20068;-56
2022/07/01 08:11:42;;;;;;;20.73;10.88;;;;;;;16.16;69.82;101606.16;5008099;28;20476;-55
2022/07/01 08:14:07;;;;;;;19.98;11.40;;;;;;;16.16;69.69;101606.16;5007927;28;20398;-56
2022/07/01 08:16:33;;;;;;;21.95;11.15;;;;;;;16.24;71.48;101618.50;5011248;28;20026;-57
2022/07/01 08:18:58;;;;;;;20.23;10.60;;;;;;;16.43;68.49;101612.59;5014241;28;20045;-56
2022/07/01 08:21:23;;;;;;;18.30;10.00;;;;;;;16.50;68.11;101618.53;5011912;28;20454;-56
2022/07/01 08:23:48;;;;;;;19.42;10.55;;;;;;;16.52;68.04;101605.88;5011810;28;20038;-55
2022/07/01 08:26:15;;;;;;;18.73;10.38;;;;;;;16.57;68.04;101616.06;5011755;28;20398;-56
2022/07/01 08:28:41;;;;;;;18.08;10.23;;;;;;;16.55;66.02;101623.94;5010227;28;20430;-54
2022/07/01 08:31:06;;;;;;;18.20;9.90;;;;;;;16.61;65.98;101636.59;5011650;28;20042;-55
2022/07/01 08:33:32;;;;;;;18.20;9.93;;;;;;;16.66;66.05;101638.41;5011595;28;20040;-55
2022/07/01 08:35:57;;;;;;;16.38;9.27;;;;;;;16.72;65.17;101627.91;5011782;28;20022;-55
2022/07/01 08:38:22;;;;;;;16.42;9.60;;;;;;;16.76;64.32;101637.25;5011454;28;20108;-55
2022/07/01 08:40:47;;;;;;;16.02;9.00;;;;;;;16.87;63.96;101638.56;5011488;28;20076;-55
2022/07/01 08:43:13;;;;;;;13.88;8.73;;;;;;;16.92;62.33;101643.97;5011281;28;20472;-54
2022/07/01 08:45:38;;;;;;;14.38;8.80;;;;;;;16.92;62.19;101643.97;5010077;28;20575;-56
2022/07/01 08:48:05;;;;;;;12.63;8.50;;;;;;;16.95;61.97;101639.75;5011838;28;20026;-55
2022/07/01 08:50:35;;;;;;;11.70;8.70;;;;;;;16.98;60.72;101644.66;5011569;28;20453;-55
2022/07/01 08:53:01;;;;;;;15.23;8.70;;;;;;;17.05;60.44;101650.56;5011627;28;20141;-55
2022/07/01 08:55:26;;;;;;;13.82;8.73;;;;;;;17.08;60.46;101649.09;5011413;28;20125;-57
2022/07/01 08:57:52;;;;;;;14.00;8.52;;;;;;;17.12;59.37;101648.09;5010962;28;20073;-56
2022/07/01 09:00:17;;;;;;;14.48;8.95;;;;;;;17.24;59.06;101657.78;5011212;28;20399;-55
2022/07/01 09:03:03;;;;;;;14.15;8.50;;;;;;;17.42;59.12;101656.59;5010957;28;20034;-55
2022/07/01 09:05:30;;;;;;;11.80;8.10;;;;;;;17.40;57.44;101653.31;5011097;28;20059;-54
2022/07/01 09:07:58;;;;;;;11.52;8.30;;;;;;;17.49;57.69;101656.06;5009543;28;20026;-55
2022/07/01 09:10:24;;;;;;;14.27;7.85;;;;;;;17.63;60.00;101644.66;5010833;28;20052;-54
2022/07/01 09:12:49;;;;;;;12.93;8.15;;;;;;;17.70;57.98;101658.97;5011094;28;20457;-56
2022/07/01 09:15:21;;;;;;;14.88;8.85;;;;;;;17.80;57.58;101649.38;5011118;28;20029;-56
2022/07/01 09:17:47;;;;;;;13.88;7.90;;;;;;;17.73;56.76;101644.28;5011099;28;20121;-55
2022/07/01 09:20:24;;;;;;;11.63;8.10;;;;;;;17.82;58.19;101655.44;5011322;28;20389;-54
2022/07/01 09:23:06;;;;;;;12.65;8.05;;;;;;;17.93;57.30;101651.13;5011041;28;20106;-55
2022/07/01 09:25:48;;;;;;;12.35;8.25;;;;;;;18.06;54.90;101645.63;5010819;28;20049;-54
2022/07/01 09:28:16;;;;;;;12.48;7.80;;;;;;;17.91;54.97;101656.22;5011460;28;20056;-55
2022/07/01 09:30:45;;;;;;;14.43;8.55;;;;;;;17.91;56.08;101653.44;5011122;28;20462;-54
2022/07/01 09:33:19;;;;;;;12.82;8.15;;;;;;;18.02;56.87;101645.50;5010971;28;20037;-55
2022/07/01 09:35:45;;;;;;;;;;;;;;;18.22;55.70;101655.09;5011876;28;20034;-55
2022/07/01 09:38:16;;;;;;;12.18;8.35;;;;;;;18.13;54.62;101653.50;5011645;28;19924;-54
2022/07/01 09:40:59;;;;;;;15.45;8.50;;;;;;;18.12;55.59;101647.09;5009757;28;20113;-54
2022/07/01 09:43:26;;;;;;;14.27;8.02;;;;;;;18.30;54.09;101655.38;5010916;28;20057;-55
2022/07/01 09:46:02;;;;;;;15.57;8.75;;;;;;;18.44;55.37;101660.72;5010941;28;20037;-55
2022/07/01 09:48:34;;;;;;;15.25;9.02;;;;;;;18.50;54.36;101657.41;5010879;28;20177;-56
2022/07/01 09:51:00;;;;;;;13.57;8.73;;;;;;;18.48;51.88;101662.50;5010578;28;20034;-54
2022/07/01 09:53:26;;;;;;;11.98;8.60;;;;;;;18.55;53.37;101667.56;5010437;28;20064;-55
2022/07/01 09:55:52;;;;;;;14.00;7.50;;;;;;;18.70;53.03;101671.75;5010586;28;20089;-54
2022/07/01 09:58:18;;;;;;;15.57;8.50;;;;;;;18.83;53.97;101675.44;5010290;28;20053;-55
2022/07/01 10:00:44;;;;;;;16.42;8.00;;;;;;;18.94;54.78;101679.47;5010119;28;20087;-54
2022/07/01 10:03:09;;;;;;;14.15;8.48;;;;;;;19.00;53.93;101669.69;5010187;28;20033;-56
2022/07/01 10:05:51;;;;;;;12.63;8.20;;;;;;;19.14;52.77;101685.41;5010163;28;20029;-55
2022/07/01 10:08:38;;;;;;;11.38;8.05;;;;;;;19.09;53.66;101680.81;5008841;28;20037;-54
2022/07/01 10:11:35;;;;;;;13.60;8.07;;;;;;;19.17;53.21;101679.09;5010050;28;20076;-55
2022/07/01 10:14:04;;;;;;;15.90;8.30;;;;;;;19.27;51.21;101681.47;5010177;28;20038;-54
2022/07/01 10:16:31;;;;;;;15.55;8.13;;;;;;;19.48;51.91;101687.03;5010646;28;20096;-55
2022/07/01 10:18:57;;;;;;;14.05;8.20;;;;;;;19.58;50.17;101691.38;5010010;28;20525;-54
2022/07/01 10:21:27;;;;;;;11.85;7.82;;;;;;;19.73;49.59;101706.75;5010216;28;20034;-54
2022/07/01 10:23:53;;;;;;;12.35;8.30;;;;;;;19.67;47.90;101698.88;5010418;28;20091;-54
2022/07/01 10:26:19;;;;;;;13.15;8.02;;;;;;;19.67;49.14;101710.13;5010334;28;20088;-57
2022/07/01 10:28:46;;;;;;;14.18;7.78;;;;;;;19.78;48.99;101706.50;5010390;28;20030;-55
2022/07/01 10:31:18;;;;;;;13.43;8.35;;;;;;;19.88;48.86;101708.09;5009933;28;20034;-55
2022/07/01 10:33:50;;;;;;;13.45;7.50;;;;;;;20.00;48.41;101723.28;5009420;28;20092;-54
2022/07/01 10:36:21;;;;;;;12.68;7.80;;;;;;;19.91;46.71;101720.59;5009691;28;20084;-52
2022/07/01 10:39:03;;;;;;;13.15;7.45;;;;;;;19.85;48.64;101713.53;5009117;28;20053;-53
2022/07/01 10:41:34;;;;;;;11.15;6.85;;;;;;;19.87;47.67;101714.88;5009491;28;20022;-53
2022/07/01 10:44:05;;;;;;;11.25;7.65;;;;;;;19.63;48.14;101712.81;5009522;28;20038;-54
2022/07/01 10:46:40;;;;;;;12.35;7.22;;;;;;;19.66;49.46;101712.09;5009500;28;20515;-54
2022/07/01 10:49:12;;;;;;;14.68;8.10;;;;;;;19.77;47.44;101699.25;5009105;28;20131;-52
2022/07/01 10:51:53;;;;;;;14.75;8.60;;;;;;;19.99;47.79;101697.19;5009672;28;20022;-53
2022/07/01 10:54:45;;;;;;;10.80;7.80;;;;;;;20.25;48.08;101705.28;5009410;28;20519;-54
2022/07/01 10:57:16;;;;;;;11.52;7.70;;;;;;;20.35;47.40;101705.97;5009626;28;20037;-54
2022/07/01 10:59:48;;;;;;;10.57;7.60;;;;;;;20.50;46.29;101704.44;5008911;28;20124;-54
2022/07/01 11:02:20;;;;;;;10.68;7.53;;;;;;;20.64;47.00;101701.25;5009045;28;20036;-54
2022/07/01 11:04:46;;;;;;;12.88;7.70;;;;;;;20.72;47.00;101701.09;5007716;28;20029;-53
2022/07/01 11:07:12;;;;;;;10.82;7.20;;;;;;;20.62;45.00;101704.41;5023514;28;20112;-57
2022/07/01 11:09:37;;;;;;;11.65;7.70;;;;;;;20.51;46.54;101703.25;5025187;28;20034;-54
2022/07/01 11:12:04;;;;;;;12.65;7.32;;;;;;;20.46;46.07;101692.25;5011738;28;20040;-54
2022/07/01 11:14:34;;;;;;;13.73;7.90;;;;;;;20.42;46.95;101684.53;5024107;28;20492;-53
2022/07/01 11:17:00;;;;;;;11.25;7.32;;;;;;;20.53;47.40;101695.28;5029906;28;20368;-55